Time;durP1;ratioP1;P1;durP2;ratioP2;P2;SDS_P1;SDS_P2;PMS_P1;PMS_P2;Temp;Humidity;BMP_temperature;BMP_pressure;BME280_temperature;BME280_humidity;BME280_pressure;Samples;Min_cycle;Max_cycle;Signal;HPM_P1;HPM_P2
2023/01/12 00:01:32;;;;;;;10.82;1.27;;;;;;;4.66;54.76;100430.84;5061677;28;20562;-64
2023/01/12 00:03:58;;;;;;;11.23;0.40;;;;;;;4.64;55.31;100436.88;5060977;28;20051;-65
2023/01/12 00:06:24;;;;;;;8.95;1.13;;;;;;;4.66;55.92;100436.88;5061390;28;20454;-64
2023/01/12 00:08:51;;;;;;;5.20;0.73;;;;;;;4.17;57.11;100433.59;5062680;28;20044;-64
2023/01/12 00:11:17;;;;;;;11.80;1.33;;;;;;;4.55;56.38;100426.75;5061850;28;20101;-64
2023/01/12 00:13:43;;;;;;;8.15;1.05;;;;;;;4.70;56.11;100445.41;5059409;28;20051;-64
2023/01/12 00:16:53;;;;;;;8.30;0.80;;;;;;;4.73;56.34;100443.59;5065824;28;20020;-64
2023/01/12 00:19:14;;;;;;;3.83;0.40;;;;;;;4.62;56.49;100440.41;5061916;28;20068;-65
2023/01/12 00:24:17;;;;;;;6.22;0.82;;;;;;;4.22;57.33;100443.84;5062892;28;20125;-66
2023/01/12 00:26:43;;;;;;;7.93;0.82;;;;;;;4.35;56.79;100441.84;5066892;28;20056;-67
2023/01/12 00:29:08;;;;;;;12.95;0.55;;;;;;;4.44;56.55;100444.25;5078870;28;20775;-66
2023/01/12 00:31:34;;;;;;;9.88;0.77;;;;;;;3.75;58.09;100438.69;5057729;28;20028;-68
2023/01/12 00:33:59;;;;;;;4.75;0.50;;;;;;;4.08;57.07;100433.78;5056498;28;20059;-68
2023/01/12 00:36:25;;;;;;;11.55;1.13;;;;;;;4.35;56.60;100439.25;5065412;28;20036;-68
2023/01/12 00:38:50;;;;;;;5.22;0.55;;;;;;;4.15;56.79;100429.31;5062447;28;20049;-70
2023/01/12 00:45:20;;;;;;;10.85;1.10;;;;;;;4.31;56.19;100430.69;5061428;28;20046;-70
2023/01/12 00:46:45;;;;;;;9.75;1.27;;;;;;;4.04;57.22;100432.13;5060983;28;20592;-70
2023/01/12 00:49:11;;;;;;;11.82;1.38;;;;;;;4.28;56.22;100425.59;5064966;28;20041;-70
2023/01/12 00:51:36;;;;;;;15.02;0.80;;;;;;;4.35;56.40;100424.59;5062387;28;20597;-70
2023/01/12 00:54:03;;;;;;;9.00;0.68;;;;;;;4.09;56.90;100424.28;5060040;28;20507;-64
2023/01/12 00:56:36;;;;;;;12.00;1.00;;;;;;;4.17;56.78;100427.56;5064234;28;20122;-64
2023/01/12 00:59:02;;;;;;;10.02;0.98;;;;;;;3.82;57.35;100415.31;5061453;28;20098;-63
2023/01/12 01:01:28;;;;;;;16.40;0.85;;;;;;;3.75;57.04;100430.94;5065155;28;20698;-65
2023/01/12 01:03:53;;;;;;;10.52;1.02;;;;;;;3.66;56.36;100430.28;5046632;28;20049;-63
2023/01/12 01:06:20;;;;;;;10.65;2.10;;;;;;;3.76;56.28;100417.16;5064117;28;20032;-63
2023/01/12 01:08:46;;;;;;;7.38;0.47;;;;;;;3.50;56.42;100440.88;5075437;28;20067;-64
2023/01/12 01:11:13;;;;;;;3.33;0.43;;;;;;;4.16;54.78;100436.19;5064813;28;20440;-64
2023/01/12 01:13:40;;;;;;;8.95;1.05;;;;;;;3.85;55.48;100431.66;5056082;28;20048;-66
2023/01/12 01:16:07;;;;;;;17.95;1.45;;;;;;;4.06;55.02;100437.28;5060139;28;20588;-65
2023/01/12 01:18:34;;;;;;;7.43;1.30;;;;;;;4.42;54.03;100439.09;5060351;28;20100;-65
2023/01/12 01:21:00;;;;;;;6.53;0.80;;;;;;;4.52;54.03;100437.19;5064712;28;20028;-72
2023/01/12 01:23:27;;;;;;;8.32;1.13;;;;;;;4.45;54.22;100440.75;5051320;28;20082;-72
2023/01/12 01:25:53;;;;;;;13.15;0.70;;;;;;;4.39;55.48;100439.16;5061723;28;20850;-73
2023/01/12 01:28:21;;;;;;;4.80;0.82;;;;;;;4.29;56.05;100437.66;5063584;28;20048;-72
2023/01/12 01:30:47;;;;;;;10.27;0.98;;;;;;;4.85;55.03;100437.28;5065643;28;20518;-71
2023/01/12 01:33:13;;;;;;;8.32;0.50;;;;;;;4.63;55.92;100439.50;5065426;28;20044;-70
2023/01/12 01:35:39;;;;;;;4.70;0.50;;;;;;;4.52;56.12;100423.34;5067732;28;20028;-75
2023/01/12 01:38:05;;;;;;;7.65;1.40;;;;;;;4.28;57.50;100425.59;5074837;28;20051;-74
2023/01/12 01:40:32;;;;;;;3.00;0.43;;;;;;;3.39;60.06;100428.16;5083648;28;20046;-75
2023/01/12 01:42:57;;;;;;;8.48;0.57;;;;;;;4.17;57.92;100417.22;5082418;27;20043;-67
2023/01/12 01:45:23;;;;;;;7.35;0.93;;;;;;;3.18;61.22;100429.34;5065594;28;20118;-67
2023/01/12 01:47:53;;;;;;;7.25;0.70;;;;;;;3.98;58.90;100430.53;5068745;28;20865;-68
2023/01/12 01:50:24;;;;;;;8.25;0.20;;;;;;;4.06;59.31;100424.34;5060667;28;20588;-66
2023/01/12 01:52:55;;;;;;;9.90;0.40;;;;;;;3.93;59.78;100413.38;5060537;28;20688;-67
2023/01/12 01:55:25;;;;;;;3.80;0.53;;;;;;;4.14;59.04;100407.78;5080114;27;20447;-67
2023/01/12 01:57:56;;;;;;;14.77;0.60;;;;;;;4.12;58.98;100398.34;5046666;28;20075;-66
2023/01/12 02:00:23;;;;;;;5.70;0.47;;;;;;;3.95;59.33;100406.44;5066916;28;20166;-67
2023/01/12 02:02:50;;;;;;;6.45;0.88;;;;;;;4.15;58.75;100396.53;5063838;28;20051;-67
2023/01/12 02:05:19;;;;;;;6.75;0.73;;;;;;;3.85;59.26;100395.44;5064192;28;20434;-67
2023/01/12 02:07:46;;;;;;;8.27;0.60;;;;;;;3.97;59.20;100390.03;5075541;28;20044;-66
2023/01/12 02:10:11;;;;;;;12.95;1.05;;;;;;;4.05;58.62;100396.75;5061859;28;20603;-67
2023/01/12 02:18:16;;;;;;;9.63;1.00;;;;;;;4.18;58.79;100391.28;5067757;28;20039;-67
2023/01/12 02:20:56;;;;;;;10.60;1.00;;;;;;;4.22;58.75;100386.91;5066332;28;20040;-67
2023/01/12 02:23:43;;;;;;;11.40;1.02;;;;;;;4.24;58.47;100385.16;5061790;28;20060;-66
2023/01/12 02:26:15;;;;;;;12.32;1.55;;;;;;;4.39;57.82;100392.59;5066160;28;20469;-67
2023/01/12 02:29:18;;;;;;;10.82;0.40;;;;;;;4.30;58.45;100374.69;5064886;28;20051;-66
2023/01/12 02:31:47;;;;;;;11.07;0.88;;;;;;;4.24;58.80;100372.22;5061694;28;20417;-66
2023/01/12 02:34:43;;;;;;;10.35;1.20;;;;;;;4.15;59.56;100368.09;5071898;28;20044;-68
2023/01/12 02:37:42;;;;;;;9.32;0.60;;;;;;;4.22;59.42;100361.06;5039111;28;20043;-67
2023/01/12 02:40:08;;;;;;;12.55;1.08;;;;;;;4.65;58.83;100352.31;5063181;28;20028;-73
2023/01/12 02:42:46;;;;;;;6.90;0.98;;;;;;;4.34;59.90;100353.03;5061106;28;20486;-69
2023/01/12 02:45:20;;;;;;;14.23;1.17;;;;;;;3.92;60.68;100349.63;5062071;28;20093;-68
2023/01/12 02:48:05;;;;;;;11.63;1.30;;;;;;;4.62;58.85;100342.88;5063129;28;20484;-69
2023/01/12 02:50:55;;;;;;;16.80;1.10;;;;;;;4.57;58.38;100336.13;5044958;28;20488;-69
2023/01/12 02:53:33;;;;;;;7.90;0.88;;;;;;;4.70;58.41;100329.78;5060127;28;20612;-69
2023/01/12 02:56:02;;;;;;;21.40;2.47;;;;;;;4.18;59.79;100323.19;5066701;28;20046;-69
2023/01/12 02:58:34;;;;;;;14.70;1.27;;;;;;;4.42;59.35;100330.41;5063704;28;20043;-70
2023/01/12 03:01:02;;;;;;;3.88;0.55;;;;;;;3.70;59.72;100331.13;5064323;28;20044;-70
2023/01/12 03:03:28;;;;;;;7.00;0.63;;;;;;;4.68;58.02;100315.16;5062268;28;20045;-71
2023/01/12 03:05:56;;;;;;;17.13;1.95;;;;;;;4.55;58.07;100323.22;5061704;28;20300;-71
2023/01/12 03:08:27;;;;;;;15.57;0.85;;;;;;;4.37;59.01;100318.47;5065140;28;20145;-70
2023/01/12 03:11:02;;;;;;;5.93;0.85;;;;;;;4.78;57.81;100309.69;5060913;28;20880;-70
2023/01/12 03:13:30;;;;;;;8.25;1.02;;;;;;;4.49;58.48;100314.75;5075095;27;20076;-70
2023/01/12 03:15:57;;;;;;;10.68;1.45;;;;;;;4.36;58.92;100309.00;5061824;28;20497;-70
2023/01/12 03:18:31;;;;;;;11.05;1.00;;;;;;;4.42;59.24;100320.06;5062580;28;20048;-70
2023/01/12 03:21:25;;;;;;;9.43;0.88;;;;;;;4.59;58.81;100316.25;5079860;27;20035;-65
2023/01/12 03:24:05;;;;;;;5.88;0.90;;;;;;;4.59;58.70;100298.97;5055552;28;20102;-67
2023/01/12 03:26:34;;;;;;;9.05;0.88;;;;;;;4.71;58.58;100300.41;5061217;28;20044;-67
2023/01/12 03:29:11;;;;;;;9.55;1.70;;;;;;;4.85;58.29;100297.44;5065080;28;20493;-67
2023/01/12 03:31:37;;;;;;;16.33;1.65;;;;;;;4.73;58.77;100297.78;5070440;28;20036;-67
2023/01/12 03:34:03;;;;;;;12.35;1.10;;;;;;;4.48;59.73;100290.59;5059505;28;20040;-67
2023/01/12 03:36:37;;;;;;;7.07;0.90;;;;;;;4.76;59.00;100285.59;5064482;28;20028;-67
2023/01/12 03:39:26;;;;;;;9.20;1.27;;;;;;;4.67;59.63;100283.22;5063179;28;20036;-67
2023/01/12 03:42:13;;;;;;;6.28;0.80;;;;;;;4.24;60.77;100286.00;5064473;28;20039;-66
2023/01/12 03:44:47;;;;;;;4.03;0.55;;;;;;;4.59;59.81;100274.81;5061301;28;20024;-67
2023/01/12 03:47:23;;;;;;;11.02;0.85;;;;;;;4.77;59.69;100266.59;5061565;28;20048;-66
2023/01/12 03:49:56;;;;;;;8.45;0.88;;;;;;;5.30;58.45;100265.22;5073267;27;20424;-66
2023/01/12 03:52:24;;;;;;;10.52;1.13;;;;;;;5.08;58.76;100258.06;5060172;28;20059;-66
2023/01/12 03:54:52;;;;;;;15.40;1.17;;;;;;;4.38;61.26;100256.31;5064064;28;20058;-67
2023/01/12 03:57:19;;;;;;;12.60;1.08;;;;;;;4.46;61.33;100252.72;5060574;28;20742;-67
2023/01/12 03:59:45;;;;;;;11.52;1.85;;;;;;;5.09;59.45;100251.97;5063173;28;20024;-67
2023/01/12 04:02:11;;;;;;;6.50;1.00;;;;;;;5.24;59.23;100243.78;5064718;28;20444;-67
2023/01/12 04:04:37;;;;;;;9.40;1.52;;;;;;;5.06;60.33;100233.94;5058235;28;20527;-67
2023/01/12 04:07:02;;;;;;;10.48;1.65;;;;;;;4.44;62.41;100234.63;5062279;28;20432;-67
2023/01/12 04:09:28;;;;;;;8.80;2.80;;;;;;;4.99;60.43;100222.06;5062833;28;20035;-66
2023/01/12 04:12:12;;;;;;;13.35;1.38;;;;;;;4.41;62.21;100222.63;5062261;28;20085;-66
2023/01/12 04:14:39;;;;;;;7.88;1.05;;;;;;;4.70;61.55;100221.03;5058957;28;20425;-66
2023/01/12 04:17:06;;;;;;;10.57;1.83;;;;;;;4.60;62.34;100216.97;5061410;28;20055;-66
2023/01/12 04:19:31;;;;;;;7.57;1.67;;;;;;;5.12;60.54;100205.25;5060559;28;20093;-64
2023/01/12 04:24:41;;;;;;;7.70;1.52;;;;;;;5.15;60.20;100188.78;5066827;28;20111;-73
2023/01/12 04:27:06;;;;;;;8.32;1.35;;;;;;;5.18;60.32;100186.94;5059283;28;20051;-77
2023/01/12 04:29:32;;;;;;;11.00;1.45;;;;;;;5.10;60.81;100175.97;5065368;28;20043;-73
2023/01/12 04:31:57;;;;;;;10.20;1.40;;;;;;;5.05;60.94;100172.63;5064617;28;20032;-76
2023/01/12 04:34:23;;;;;;;7.72;1.40;;;;;;;4.88;61.55;100159.31;5062611;28;20036;-76
2023/01/12 04:36:48;;;;;;;5.95;1.42;;;;;;;5.01;61.48;100163.25;5083381;27;20082;-77
2023/01/12 04:39:14;;;;;;;9.02;1.48;;;;;;;4.96;61.18;100149.59;5069774;28;20484;-76
2023/01/12 04:41:39;;;;;;;7.65;1.30;;;;;;;5.10;60.88;100146.59;5064785;28;20036;-68
2023/01/12 04:44:05;;;;;;;14.13;1.77;;;;;;;5.10;61.10;100141.44;5063344;28;20047;-67
2023/01/12 04:46:30;;;;;;;8.48;1.73;;;;;;;5.04;61.69;100127.75;5066322;28;20032;-67
2023/01/12 04:48:56;;;;;;;7.65;1.42;;;;;;;4.76;62.38;100132.00;5062403;28;20035;-68
2023/01/12 04:51:21;;;;;;;9.40;1.15;;;;;;;5.34;61.16;100129.50;5063745;28;20745;-67
2023/01/12 04:53:47;;;;;;;5.63;1.92;;;;;;;4.78;62.67;100120.69;5060655;28;20047;-68
2023/01/12 04:56:13;;;;;;;16.45;1.98;;;;;;;5.34;60.80;100119.97;5062524;28;20040;-68
2023/01/12 04:58:38;;;;;;;8.50;2.38;;;;;;;4.99;62.10;100108.94;5061273;28;20075;-68
2023/01/12 05:01:14;;;;;;;7.75;3.22;;;;;;;4.49;63.76;100102.53;5064897;28;20070;-68
2023/01/12 05:03:41;;;;;;;7.88;1.85;;;;;;;4.17;64.80;100086.13;5060819;28;20566;-68
2023/01/12 05:06:07;;;;;;;10.25;1.48;;;;;;;5.21;61.89;100098.78;5068292;28;20035;-68
2023/01/12 05:11:29;;;;;;;9.90;1.77;;;;;;;4.92;62.53;100080.66;5008199;28;20494;-68
2023/01/12 05:13:56;;;;;;;11.75;2.10;;;;;;;5.24;61.43;100062.41;5065417;28;20124;-68
2023/01/12 05:16:21;;;;;;;5.07;1.35;;;;;;;4.95;62.88;100067.63;5065385;28;20058;-68
2023/01/12 05:18:46;;;;;;;6.10;1.55;;;;;;;4.65;63.90;100046.88;5065089;28;20028;-68
2023/01/12 05:21:14;;;;;;;6.40;1.33;;;;;;;4.70;63.92;100054.50;5079871;28;20061;-68
2023/01/12 05:23:40;;;;;;;5.70;1.40;;;;;;;4.82;63.08;100034.28;5067487;28;20048;-68
2023/01/12 05:26:06;;;;;;;7.25;1.13;;;;;;;4.30;65.15;100032.34;5070714;28;20613;-67
2023/01/12 05:28:31;;;;;;;5.18;1.10;;;;;;;5.49;61.19;100025.38;5062533;28;20117;-67
2023/01/12 05:31:03;;;;;;;6.25;1.23;;;;;;;4.91;62.71;100006.47;5064642;28;20458;-68
2023/01/12 05:33:29;;;;;;;3.70;1.17;;;;;;;5.34;61.32;100020.66;5079473;27;20048;-68
2023/01/12 05:35:54;;;;;;;7.03;1.33;;;;;;;5.02;63.24;100009.56;5065131;28;20032;-68
2023/01/12 05:38:20;;;;;;;3.33;1.33;;;;;;;5.21;61.86;100000.34;5064563;28;20081;-68
2023/01/12 05:40:45;;;;;;;3.25;0.75;;;;;;;5.10;62.04;99986.00;5053385;28;20036;-66
2023/01/12 05:46:04;;;;;;;3.75;1.10;;;;;;;5.22;62.53;99983.88;5065964;28;20042;-73
2023/01/12 05:48:31;;;;;;;2.40;0.88;;;;;;;5.09;61.92;99973.97;5049786;28;20123;-72
2023/01/12 05:51:04;;;;;;;6.95;1.15;;;;;;;5.09;62.63;99969.63;5081151;27;20039;-74
2023/01/12 05:53:30;;;;;;;6.05;1.55;;;;;;;4.46;63.63;99961.16;5064716;28;20587;-73
2023/01/12 05:55:56;;;;;;;1.88;0.80;;;;;;;4.88;63.14;99953.03;5063470;28;20041;-72
2023/01/12 05:58:22;;;;;;;4.13;0.73;;;;;;;4.72;63.72;99939.69;5069558;28;20045;-72
2023/01/12 06:00:47;;;;;;;1.50;0.57;;;;;;;4.66;63.39;99936.44;5066195;28;20036;-72
2023/01/12 06:03:13;;;;;;;5.30;0.90;;;;;;;4.96;62.72;99922.53;5063549;28;20072;-68
2023/01/12 06:05:38;;;;;;;1.85;0.40;;;;;;;5.34;61.44;99904.06;5063467;28;20032;-67
2023/01/12 06:08:04;;;;;;;1.17;0.70;;;;;;;5.29;61.55;99887.84;5067772;28;20068;-68
2023/01/12 06:10:29;;;;;;;3.47;0.55;;;;;;;5.43;60.97;99864.88;5066067;28;20039;-67
2023/01/12 06:15:39;;;;;;;2.10;0.65;;;;;;;4.90;62.71;99854.56;5061027;28;20115;-68
2023/01/12 06:18:05;;;;;;;4.53;0.50;;;;;;;4.70;63.27;99848.28;5073282;28;20182;-68
2023/01/12 06:20:33;;;;;;;4.97;0.70;;;;;;;5.00;62.45;99837.84;5061008;28;20477;-68
2023/01/12 06:23:03;;;;;;;1.92;0.40;;;;;;;4.55;63.19;99825.47;5045834;28;20143;-68
2023/01/12 06:25:29;;;;;;;2.20;0.43;;;;;;;5.27;61.44;99817.09;5064906;28;20739;-68
2023/01/12 06:27:56;;;;;;;2.15;0.40;;;;;;;4.73;63.18;99801.56;5064902;28;20044;-65
2023/01/12 06:30:21;;;;;;;1.55;0.28;;;;;;;4.96;62.11;99792.22;5065153;28;20093;-64
2023/01/12 06:32:47;;;;;;;1.17;0.28;;;;;;;4.67;63.39;99785.41;5062685;28;20048;-67
2023/01/12 06:35:12;;;;;;;2.60;0.40;;;;;;;4.90;62.44;99769.13;5066969;28;20125;-70
2023/01/12 06:37:38;;;;;;;3.35;0.30;;;;;;;5.18;61.39;99771.63;5064341;28;20119;-65
2023/01/12 06:40:04;;;;;;;2.88;0.65;;;;;;;5.09;61.95;99770.19;5065396;28;20767;-67
2023/01/12 06:42:30;;;;;;;6.38;0.30;;;;;;;4.78;62.31;99773.78;5062988;28;20108;-66
2023/01/12 06:44:57;;;;;;;3.33;0.47;;;;;;;5.05;61.95;99784.13;5068757;28;20609;-73
2023/01/12 06:47:23;;;;;;;1.30;0.20;;;;;;;4.82;62.92;99772.78;5067431;28;23361;-73
2023/01/12 06:49:50;;;;;;;3.75;0.52;;;;;;;4.54;63.65;99782.34;5065999;28;20029;-73
2023/01/12 06:52:21;;;;;;;0.60;0.15;;;;;;;4.22;64.44;99779.06;5065988;28;20036;-71
2023/01/12 06:54:47;;;;;;;1.30;0.22;;;;;;;4.35;64.15;99785.53;5055274;28;20202;-72
2023/01/12 06:57:13;;;;;;;1.33;0.25;;;;;;;4.70;63.45;99769.75;5063105;27;20528;-73
2023/01/12 06:59:40;;;;;;;5.70;1.02;;;;;;;5.07;62.30;99774.56;5046714;28;20032;-73
2023/01/12 07:02:14;;;;;;;1.85;0.45;;;;;;;4.83;63.31;99776.22;5069991;27;20523;-73
2023/01/12 07:04:42;;;;;;;2.00;0.10;;;;;;;4.21;65.42;99761.84;5062474;28;20612;-73
2023/01/12 07:07:09;;;;;;;5.20;0.35;;;;;;;4.74;63.63;99759.25;5066778;28;20047;-72
2023/01/12 07:09:35;;;;;;;1.38;0.20;;;;;;;4.56;64.18;99757.28;5084931;28;20036;-65
2023/01/12 07:12:02;;;;;;;0.95;0.30;;;;;;;4.55;64.43;99747.84;5068258;28;20154;-64
2023/01/12 07:14:28;;;;;;;1.15;0.43;;;;;;;4.35;64.85;99754.50;5069292;28;20069;-65
2023/01/12 07:16:54;;;;;;;0.88;0.30;;;;;;;4.30;65.07;99734.84;5061924;28;20032;-65
2023/01/12 07:19:20;;;;;;;5.03;0.20;;;;;;;4.63;64.50;99730.28;5058595;28;20025;-72
2023/01/12 07:21:49;;;;;;;1.98;0.20;;;;;;;4.57;64.39;99726.19;5064570;28;20063;-74
2023/01/12 07:24:16;;;;;;;2.25;0.20;;;;;;;4.48;65.38;99733.41;5060258;28;20450;-73
2023/01/12 07:26:46;;;;;;;0.82;0.17;;;;;;;4.54;65.58;99717.66;5062976;28;20043;-72
2023/01/12 07:29:12;;;;;;;2.70;0.20;;;;;;;4.46;65.56;99730.03;5048067;28;20044;-72
2023/01/12 07:31:39;;;;;;;0.15;0.05;;;;;;;4.49;65.52;99727.31;5053426;28;20039;-73
2023/01/12 07:34:05;;;;;;;2.58;0.40;;;;;;;4.52;65.05;99740.16;5049002;28;20564;-76
2023/01/12 07:36:32;;;;;;;2.22;0.43;;;;;;;4.18;66.86;99730.91;5063896;28;20168;-73
2023/01/12 07:38:59;;;;;;;1.70;0.50;;;;;;;4.41;66.65;99710.31;5064980;28;20039;-73
2023/01/12 07:44:11;;;;;;;0.50;0.10;;;;;;;4.91;64.94;99713.88;5057159;28;20040;-66
2023/01/12 07:46:37;;;;;;;2.00;0.30;;;;;;;4.86;65.60;99714.00;5061784;28;20032;-66
2023/01/12 07:49:04;;;;;;;0.32;0.10;;;;;;;4.30;67.80;99719.34;5079149;27;20040;-67
2023/01/12 07:51:30;;;;;;;5.22;0.17;;;;;;;4.51;66.72;99720.38;5066559;28;20503;-67
2023/01/12 07:53:56;;;;;;;0.30;0.10;;;;;;;4.80;65.84;99719.38;5061965;28;20048;-67
2023/01/12 07:56:21;;;;;;;0.73;0.20;;;;;;;4.69;66.69;99722.31;5064517;28;20036;-66
2023/01/12 07:58:47;;;;;;;4.40;0.20;;;;;;;4.73;66.04;99716.16;5059874;28;20783;-68
2023/01/12 08:01:13;;;;;;;2.58;0.10;;;;;;;5.16;65.27;99712.06;5063573;28;20044;-70
2023/01/12 08:03:39;;;;;;;1.83;0.20;;;;;;;5.07;65.17;99712.41;5060923;28;20032;-71
2023/01/12 08:06:05;;;;;;;3.97;0.70;;;;;;;4.97;65.62;99726.59;5064321;28;20070;-68
2023/01/12 08:08:30;;;;;;;1.60;0.35;;;;;;;5.36;65.06;99724.31;5062118;28;20112;-68
2023/01/12 08:11:05;;;;;;;3.30;0.20;;;;;;;4.66;67.23;99714.69;5069988;28;20032;-70
2023/01/12 08:13:32;;;;;;;0.95;0.50;;;;;;;4.72;66.73;99705.84;5059856;28;20048;-69
2023/01/12 08:16:03;;;;;;;0.73;0.10;;;;;;;4.89;67.11;99713.06;5063147;28;20113;-68
2023/01/12 08:18:37;;;;;;;0.20;0.10;;;;;;;5.29;65.44;99707.31;5052605;28;20047;-68
2023/01/12 08:21:06;;;;;;;0.30;0.10;;;;;;;5.28;66.39;99725.50;5064702;28;20043;-67
2023/01/12 08:23:41;;;;;;;0.43;0.10;;;;;;;5.00;67.14;99711.78;5058333;28;20143;-67
2023/01/12 08:26:14;;;;;;;0.35;0.10;;;;;;;5.10;66.66;99714.91;5063265;28;20050;-68
2023/01/12 08:28:44;;;;;;;0.20;0.10;;;;;;;5.52;65.82;99714.22;5063111;28;20124;-67
2023/01/12 08:31:14;;;;;;;1.05;0.10;;;;;;;5.34;66.26;99726.13;5049559;28;20028;-67
2023/01/12 08:33:40;;;;;;;1.00;0.03;;;;;;;5.82;64.96;99727.78;5056054;28;20043;-67
2023/01/12 08:36:09;;;;;;;2.17;0.10;;;;;;;5.38;66.16;99732.03;5045150;28;20047;-67
2023/01/12 08:38:34;;;;;;;0.40;0.10;;;;;;;4.96;68.15;99730.06;5057938;28;22766;-66
2023/01/12 08:44:02;;;;;;;1.63;0.10;;;;;;;5.39;66.28;99733.72;5050562;28;20035;-68
2023/01/12 08:46:35;;;;;;;0.95;0.20;;;;;;;5.80;65.70;99734.78;5059295;28;20121;-67
2023/01/12 08:49:02;;;;;;;0.57;0.40;;;;;;;5.90;65.40;99744.78;5052792;28;20048;-68
2023/01/12 08:51:28;;;;;;;0.68;0.30;;;;;;;5.62;66.53;99743.25;5057685;28;20033;-68
2023/01/12 08:53:53;;;;;;;1.42;0.15;;;;;;;6.11;64.79;99748.31;5056032;28;20049;-68
2023/01/12 08:56:19;;;;;;;0.95;0.10;;;;;;;6.00;65.19;99746.97;5058720;28;20039;-68
2023/01/12 08:58:44;;;;;;;0.82;0.10;;;;;;;5.91;65.49;99752.50;5057025;28;20878;-68
2023/01/12 09:01:12;;;;;;;1.02;0.20;;;;;;;5.62;66.44;99751.03;5058749;28;20036;-68
2023/01/12 09:03:38;;;;;;;0.43;0.10;;;;;;;5.81;65.93;99745.97;5053059;28;20036;-68
2023/01/12 09:06:24;;;;;;;1.00;0.20;;;;;;;5.99;65.97;99737.47;5066824;28;20036;-68
2023/01/12 09:09:00;;;;;;;1.67;0.20;;;;;;;5.97;65.86;99751.41;5058486;28;20234;-68
2023/01/12 09:11:28;;;;;;;1.20;0.57;;;;;;;6.07;65.30;99730.25;5055146;28;20033;-69
2023/01/12 09:13:57;;;;;;;3.53;0.55;;;;;;;6.03;65.72;99752.03;5052378;28;20143;-68
2023/01/12 09:16:25;;;;;;;2.70;0.30;;;;;;;6.58;64.17;99761.16;5050549;28;20156;-68
2023/01/12 09:18:53;;;;;;;2.90;0.43;;;;;;;6.60;64.32;99762.78;5053485;28;20049;-68
2023/01/12 09:21:20;;;;;;;2.35;0.32;;;;;;;6.39;65.02;99759.28;5054483;28;20455;-68
2023/01/12 09:23:48;;;;;;;4.53;0.70;;;;;;;6.30;65.73;99757.06;5057815;28;20079;-68
2023/01/12 09:26:16;;;;;;;2.88;1.42;;;;;;;6.33;64.72;99801.09;5054753;28;20595;-69
2023/01/12 09:28:43;;;;;;;10.57;0.98;;;;;;;6.31;66.07;99784.72;5054946;27;20044;-68
2023/01/12 09:31:12;;;;;;;4.18;0.80;;;;;;;6.28;66.14;99777.03;5058044;28;20024;-68
2023/01/12 09:33:39;;;;;;;4.80;0.75;;;;;;;5.88;67.21;99788.91;5054449;28;20037;-68
2023/01/12 09:36:16;;;;;;;5.05;0.30;;;;;;;6.49;65.44;99788.34;5059738;28;20032;-68
2023/01/12 09:38:43;;;;;;;2.70;0.17;;;;;;;6.61;65.29;99797.38;5058754;28;20040;-67
2023/01/12 09:46:57;;;;;;;4.85;0.57;;;;;;;6.45;65.54;99790.19;5063727;28;20040;-67
2023/01/12 09:47:47;;;;;;;3.17;0.60;;;;;;;6.47;66.03;99809.16;5058862;28;20131;-67
2023/01/12 09:50:19;;;;;;;2.53;0.40;;;;;;;7.22;64.22;99800.00;5066041;28;20386;-67
2023/01/12 09:52:50;;;;;;;8.68;0.35;;;;;;;7.15;63.80;99826.31;5051672;28;20543;-67
2023/01/12 09:55:18;;;;;;;4.25;0.85;;;;;;;7.17;64.37;99812.34;5048975;28;20421;-67
2023/01/12 09:58:14;;;;;;;11.32;0.70;;;;;;;6.82;64.10;99819.88;5063139;28;20047;-67
2023/01/12 10:00:39;;;;;;;7.88;0.65;;;;;;;6.97;64.08;99838.31;5061950;28;20032;-67
2023/01/12 10:03:28;;;;;;;10.27;0.90;;;;;;;6.81;63.90;99823.34;5068955;28;20049;-66
2023/01/12 10:05:57;;;;;;;4.90;0.60;;;;;;;6.84;64.16;99828.44;5073427;28;20471;-67
2023/01/12 10:08:26;;;;;;;5.43;1.42;;;;;;;7.24;63.23;99831.94;5062993;28;20096;-68
2023/01/12 10:11:04;;;;;;;6.90;0.30;;;;;;;7.63;61.90;99843.34;5065764;28;20038;-67
2023/01/12 10:13:48;;;;;;;4.65;1.00;;;;;;;7.58;61.60;99830.53;5061232;28;20044;-67
2023/01/12 10:16:40;;;;;;;9.45;0.70;;;;;;;7.53;61.91;99842.84;5064235;28;20036;-68
2023/01/12 10:19:18;;;;;;;6.78;0.30;;;;;;;7.41;62.06;99827.81;5029912;28;20102;-66
2023/01/12 10:21:44;;;;;;;5.25;0.47;;;;;;;7.47;61.32;99853.53;5069499;28;20070;-66
2023/01/12 10:24:12;;;;;;;6.22;0.85;;;;;;;7.59;61.09;99846.97;5066873;28;20184;-67
2023/01/12 10:26:42;;;;;;;3.95;0.50;;;;;;;7.59;60.83;99863.41;5068451;28;20086;-66
2023/01/12 10:29:10;;;;;;;3.78;0.28;;;;;;;7.99;59.99;99866.84;5066692;28;20481;-67
2023/01/12 10:31:35;;;;;;;7.38;0.20;;;;;;;7.35;61.09;99854.88;5064534;28;20146;-68
2023/01/12 10:34:10;;;;;;;3.95;0.20;;;;;;;7.76;60.27;99862.69;5061703;28;20078;-67
2023/01/12 10:37:03;;;;;;;6.35;0.52;;;;;;;7.24;60.79;99860.53;5065054;28;20043;-67
2023/01/12 10:39:43;;;;;;;3.33;0.30;;;;;;;7.67;59.85;99876.94;5066178;28;20785;-68
2023/01/12 10:43:17;;;;;;;7.97;1.33;;;;;;;7.47;60.05;99869.13;5072225;28;20032;-68
2023/01/12 10:45:22;;;;;;;5.88;1.08;;;;;;;8.15;58.21;99877.41;5066467;28;20150;-68
2023/01/12 10:47:52;;;;;;;6.45;0.88;;;;;;;7.79;59.31;99887.72;5050262;28;20474;-70
2023/01/12 10:50:19;;;;;;;8.57;0.93;;;;;;;8.02;59.34;99874.50;5064742;28;20035;-68
2023/01/12 10:52:45;;;;;;;6.07;0.60;;;;;;;7.72;59.37;99889.75;5062957;28;20518;-68
2023/01/12 10:55:19;;;;;;;7.30;0.40;;;;;;;7.82;59.44;99903.19;5067337;28;20055;-68
2023/01/12 10:57:47;;;;;;;7.32;0.93;;;;;;;8.20;58.36;99905.84;5072098;28;20040;-68
2023/01/12 11:00:24;;;;;;;3.72;0.47;;;;;;;7.27;59.80;99889.03;5066896;28;20032;-68
2023/01/12 11:02:50;;;;;;;5.25;1.50;;;;;;;7.01;61.79;99905.69;5061997;28;20063;-68
2023/01/12 11:05:37;;;;;;;6.60;1.10;;;;;;;7.08;61.36;99924.47;5068872;28;20020;-68
2023/01/12 11:08:21;;;;;;;9.88;0.63;;;;;;;7.52;60.07;99935.63;5066070;28;20051;-68
2023/01/12 11:10:47;;;;;;;14.63;1.05;;;;;;;7.06;60.94;99919.31;5067346;28;20040;-69
2023/01/12 11:13:25;;;;;;;7.72;0.95;;;;;;;6.66;61.97;99922.66;5067195;28;20048;-68
2023/01/12 11:16:10;;;;;;;8.80;0.57;;;;;;;6.65;61.47;99936.56;5065514;28;20685;-70
2023/01/12 11:18:44;;;;;;;9.88;1.55;;;;;;;7.48;59.36;99944.44;5067905;28;20198;-69
2023/01/12 11:21:14;;;;;;;4.30;0.60;;;;;;;6.99;60.46;99953.41;5062322;28;20060;-68
2023/01/12 11:24:01;;;;;;;11.60;1.55;;;;;;;7.29;59.68;99959.16;5059485;28;20047;-68
2023/01/12 11:26:46;;;;;;;8.00;1.88;;;;;;;7.06;59.29;99954.84;5061181;28;20039;-67
2023/01/12 11:29:40;;;;;;;13.85;1.60;;;;;;;6.56;59.60;99958.53;5059880;28;20093;-68
2023/01/12 11:32:15;;;;;;;12.93;0.85;;;;;;;7.23;58.07;99959.38;5060556;28;20119;-69
2023/01/12 11:34:53;;;;;;;7.35;0.70;;;;;;;7.17;57.99;99955.28;5059724;28;20033;-69
2023/01/12 11:37:19;;;;;;;14.10;1.23;;;;;;;7.61;56.95;99954.38;5061298;28;20050;-69
2023/01/12 11:39:51;;;;;;;14.32;1.30;;;;;;;6.69;57.95;99970.13;5068397;28;20493;-69
2023/01/12 11:45:23;;;;;;;9.93;1.77;;;;;;;6.97;57.44;99976.84;5069260;28;19919;-68
2023/01/12 11:47:53;;;;;;;11.23;1.13;;;;;;;7.15;57.18;99977.88;5064102;28;20039;-68
2023/01/12 11:50:29;;;;;;;13.23;2.10;;;;;;;7.56;56.11;99979.72;5070566;28;20059;-68
2023/01/12 11:52:56;;;;;;;16.42;2.75;;;;;;;6.73;58.17;99975.19;5066665;28;20040;-68
2023/01/12 11:55:53;;;;;;;14.93;2.08;;;;;;;7.41;56.75;99978.59;5064511;28;20711;-68
2023/01/12 11:58:28;;;;;;;17.65;1.98;;;;;;;7.02;57.28;99977.53;5064794;28;20189;-69
2023/01/12 12:01:11;;;;;;;18.35;1.73;;;;;;;7.39;56.40;99990.81;5076121;27;20036;-69
2023/01/12 12:03:45;;;;;;;13.82;1.63;;;;;;;8.20;54.70;99983.94;5059281;28;21044;-68
2023/01/12 12:06:28;;;;;;;16.05;1.35;;;;;;;7.87;54.91;99981.88;5064648;28;20070;-69
2023/01/12 12:09:21;;;;;;;10.13;1.77;;;;;;;7.98;54.61;100005.69;5061313;28;20047;-68
2023/01/12 12:11:59;;;;;;;8.80;0.93;;;;;;;6.83;56.64;99985.19;5062046;28;20028;-68
2023/01/12 12:15:03;;;;;;;10.77;1.42;;;;;;;7.41;55.79;99994.19;5055515;28;20044;-68
2023/01/12 12:17:49;;;;;;;16.38;1.67;;;;;;;7.34;56.22;99998.78;5060119;28;20040;-68
2023/01/12 12:20:32;;;;;;;9.00;1.45;;;;;;;7.46;55.42;100005.22;5064247;28;20036;-69
2023/01/12 12:23:19;;;;;;;12.45;1.10;;;;;;;7.25;56.01;100007.78;5073729;27;20544;-68
2023/01/12 12:26:16;;;;;;;10.95;1.08;;;;;;;6.99;57.10;99997.59;5060557;28;20622;-68
2023/01/12 12:29:09;;;;;;;8.95;1.98;;;;;;;7.02;56.87;99998.31;5058134;28;20041;-68